Time;durP1;ratioP1;P1;durP2;ratioP2;P2;SDS_P1;SDS_P2;PMS_P1;PMS_P2;Temp;Humidity;BMP_temperature;BMP_pressure;BME280_temperature;BME280_humidity;BME280_pressure;Samples;Min_cycle;Max_cycle;Signal;HPM_P1;HPM_P2
2023/12/12 00:01:09;;;;;;;;;;;;;;;-0.31;100.00;96841.66;110411;1241;69842;-60
2023/12/12 00:03:41;;;;;;;;;;;;;;;-0.30;100.00;96843.85;110402;1241;59708;-61
2023/12/12 00:06:13;;;;;;;;;;;;;;;-0.30;100.00;96840.73;110358;1241;59669;-61
2023/12/12 00:08:43;;;;;;;;;;;;;;;-0.27;100.00;96840.48;110355;1238;69742;-61
2023/12/12 00:11:14;;;;;;;;;;;;;;;-0.23;100.00;96836.55;110368;1242;69736;-61
2023/12/12 00:13:45;;;;;;;;;;;;;;;-0.20;100.00;96834.38;110373;1242;68498;-61
2023/12/12 00:16:16;;;;;;;;;;;;;;;-0.18;100.00;96833.45;110388;1240;59728;-59
2023/12/12 00:18:46;;;;;;;;;;;;;;;-0.17;100.00;96831.72;110391;1238;59814;-61
2023/12/12 00:21:17;;;;;;;;;;;;;;;-0.19;100.00;96830.21;110395;1238;71424;-61
2023/12/12 00:23:49;;;;;;;;;;;;;;;-0.23;100.00;96828.34;110559;1241;69074;-60
2023/12/12 00:26:21;;;;;;;;;;;;;;;-0.28;100.00;96831.77;110384;1238;69625;-60
2023/12/12 00:28:53;;;;;;;;;;;;;;;-0.32;100.00;96832.11;110385;1241;59663;-61
2023/12/12 00:31:25;;;;;;;;;;;;;;;-0.33;100.00;96834.73;110406;1241;59737;-61
2023/12/12 00:33:57;;;;;;;;;;;;;;;-0.33;100.00;96828.89;110418;1241;70635;-61
2023/12/12 00:36:30;;;;;;;;;;;;;;;-0.32;100.00;96836.38;110388;1238;68787;-59
2023/12/12 00:39:07;;;;;;;;;;;;;;;-0.32;100.00;96843.75;110418;1248;69712;-61
2023/12/12 00:41:38;;;;;;;;;;;;;;;-0.30;100.00;96841.44;110439;1242;59773;-61
2023/12/12 00:44:09;;;;;;;;;;;;;;;-0.31;100.00;96846.45;110592;1238;59657;-61
2023/12/12 00:46:41;;;;;;;;;;;;;;;-0.31;100.00;96849.21;110353;1240;70728;-61
2023/12/12 00:49:12;;;;;;;;;;;;;;;-0.31;100.00;96846.13;110425;1240;68595;-61
2023/12/12 00:51:44;;;;;;;;;;;;;;;-0.31;100.00;96843.52;110434;1241;69161;-61
2023/12/12 00:54:16;;;;;;;;;;;;;;;-0.29;100.00;96845.67;110416;1238;59738;-61
2023/12/12 00:56:53;;;;;;;;;;;;;;;-0.28;100.00;96851.13;110562;1245;59712;-61
2023/12/12 00:59:24;;;;;;;;;;;;;;;-0.28;100.00;96849.24;110417;1241;72366;-61
2023/12/12 01:01:55;;;;;;;;;;;;;;;-0.28;100.00;96853.00;110527;1241;69281;-60
2023/12/12 01:04:27;;;;;;;;;;;;;;;-0.29;100.00;96860.23;110384;1238;69751;-59
2023/12/12 01:06:59;;;;;;;;;;;;;;;-0.31;100.00;96861.89;110517;1244;59734;-60
2023/12/12 01:09:34;;;;;;;;;;;;;;;-0.32;100.00;96859.00;110476;1242;59746;-61
2023/12/12 01:12:08;;;;;;;;;;;;;;;-0.33;100.00;96861.58;110368;1238;70555;-60
2023/12/12 01:14:38;;;;;;;;;;;;;;;-0.34;100.00;96864.03;110503;1240;69307;-60
2023/12/12 01:17:08;;;;;;;;;;;;;;;-0.35;100.00;96866.63;110364;1248;68353;-60
2023/12/12 01:19:38;;;;;;;;;;;;;;;-0.33;100.00;96870.14;110369;1240;59754;-60
2023/12/12 01:22:08;;;;;;;;;;;;;;;-0.31;100.00;96877.09;110492;1241;59671;-61
2023/12/12 01:24:42;;;;;;;;;;;;;;;-0.26;100.00;96874.67;110491;1242;71244;-61
2023/12/12 01:27:14;;;;;;;;;;;;;;;-0.21;100.00;96875.54;110392;1238;68593;-61
2023/12/12 01:29:44;;;;;;;;;;;;;;;-0.17;100.00;96878.45;110411;1245;67535;-61
2023/12/12 01:32:13;;;;;;;;;;;;;;;-0.14;100.00;96880.38;110397;1240;59687;-61
2023/12/12 01:34:43;;;;;;;;;;;;;;;-0.11;100.00;96880.41;110537;1241;59677;-60
2023/12/12 01:37:14;;;;;;;;;;;;;;;-0.12;100.00;96885.62;110467;1238;71417;-60
2023/12/12 01:39:46;;;;;;;;;;;;;;;-0.12;100.00;96884.27;110613;1241;69826;-60
2023/12/12 01:42:18;;;;;;;;;;;;;;;-0.12;100.00;96882.73;110430;1242;68396;-60
2023/12/12 01:44:49;;;;;;;;;;;;;;;-0.08;100.00;96878.29;110310;1242;59676;-61
2023/12/12 01:47:21;;;;;;;;;;;;;;;-0.05;100.00;96877.98;110471;1241;59664;-61
2023/12/12 01:49:52;;;;;;;;;;;;;;;-0.00;100.00;96879.69;110498;1241;71389;-61
2023/12/12 01:52:26;;;;;;;;;;;;;;;0.04;100.00;96886.05;110518;1240;68948;-61
2023/12/12 01:55:00;;;;;;;;;;;;;;;0.06;100.00;96881.34;109716;1238;68840;-61
2023/12/12 01:57:32;;;;;;;;;;;;;;;0.08;100.00;96883.16;110538;1238;59729;-62
2023/12/12 02:00:05;;;;;;;;;;;;;;;0.09;100.00;96877.95;110525;1242;59722;-62
2023/12/12 02:02:41;;;;;;;;;;;;;;;0.09;100.00;96875.18;110620;1241;71602;-62
2023/12/12 02:05:11;;;;;;;;;;;;;;;0.09;100.00;96874.85;110469;1242;68520;-61
2023/12/12 02:07:50;;;;;;;;;;;;;;;0.10;100.00;96876.89;110392;1238;68719;-61
2023/12/12 02:10:21;;;;;;;;;;;;;;;0.11;100.00;96876.68;110583;1242;59731;-61
2023/12/12 02:12:53;;;;;;;;;;;;;;;0.12;100.00;96873.71;110456;1242;59631;-61
2023/12/12 02:15:23;;;;;;;;;;;;;;;0.13;100.00;96881.36;110457;1238;70625;-61
2023/12/12 02:17:53;;;;;;;;;;;;;;;0.14;100.00;96880.48;110383;1239;68352;-61
2023/12/12 02:20:24;;;;;;;;;;;;;;;0.14;100.00;96884.25;110230;1242;69594;-61
2023/12/12 02:22:55;;;;;;;;;;;;;;;0.15;100.00;96877.90;110415;1242;59763;-61
2023/12/12 02:25:28;;;;;;;;;;;;;;;0.17;100.00;96879.71;110591;1242;59757;-61
2023/12/12 02:28:01;;;;;;;;;;;;;;;0.19;100.00;96873.45;110500;1238;70442;-62
2023/12/12 02:30:34;;;;;;;;;;;;;;;0.20;100.00;96873.25;110279;1242;69584;-61
2023/12/12 02:33:07;;;;;;;;;;;;;;;0.21;100.00;96873.71;110493;1238;69211;-61
2023/12/12 02:35:42;;;;;;;;;;;;;;;0.19;100.00;96875.84;110582;1240;59624;-61
2023/12/12 02:38:14;;;;;;;;;;;;;;;0.17;100.00;96880.38;110477;1241;59769;-61
2023/12/12 02:40:45;;;;;;;;;;;;;;;0.15;100.00;96886.95;110585;1241;70590;-61
2023/12/12 02:43:17;;;;;;;;;;;;;;;0.17;100.00;96886.73;110659;1241;68540;-61
2023/12/12 02:45:46;;;;;;;;;;;;;;;0.17;100.00;96889.63;110402;1241;68536;-62
2023/12/12 02:48:19;;;;;;;;;;;;;;;0.18;100.00;96889.59;110397;1242;59805;-61
2023/12/12 02:51:00;;;;;;;;;;;;;;;0.18;100.00;96887.18;110452;1242;59683;-61
2023/12/12 02:53:31;;;;;;;;;;;;;;;0.17;100.00;96889.98;110480;1241;70649;-62
2023/12/12 02:56:06;;;;;;;;;;;;;;;0.16;100.00;96890.89;110530;1242;69313;-61
2023/12/12 02:58:40;;;;;;;;;;;;;;;0.13;100.00;96886.52;110590;1242;69313;-61
2023/12/12 03:01:14;;;;;;;;;;;;;;;0.12;100.00;96888.95;110467;1240;59765;-61
2023/12/12 03:03:49;;;;;;;;;;;;;;;0.13;100.00;96884.48;110580;1241;59682;-61
2023/12/12 03:06:20;;;;;;;;;;;;;;;0.11;100.00;96887.45;110534;1238;71326;-62
2023/12/12 03:08:51;;;;;;;;;;;;;;;0.11;100.00;96889.55;110449;1242;68500;-62
2023/12/12 03:11:23;;;;;;;;;;;;;;;0.09;100.00;96891.48;110470;1242;68407;-62
2023/12/12 03:13:57;;;;;;;;;;;;;;;0.06;100.00;96890.73;110496;1242;59667;-61
2023/12/12 03:16:37;;;;;;;;;;;;;;;0.06;100.00;96891.29;110472;1240;59662;-62
2023/12/12 03:19:11;;;;;;;;;;;;;;;0.06;100.00;96889.40;110587;1242;70661;-62
2023/12/12 03:21:41;;;;;;;;;;;;;;;0.06;100.00;96889.39;110413;1241;69268;-62
2023/12/12 03:24:14;;;;;;;;;;;;;;;0.05;100.00;96885.81;110624;1239;67581;-61
2023/12/12 03:26:48;;;;;;;;;;;;;;;0.03;100.00;96880.05;110450;1240;59697;-62
2023/12/12 03:29:20;;;;;;;;;;;;;;;0.02;100.00;96877.39;110606;1242;59685;-62
2023/12/12 03:31:53;;;;;;;;;;;;;;;0.03;100.00;96875.13;110441;1242;71450;-59
2023/12/12 03:34:25;;;;;;;;;;;;;;;0.01;100.00;96875.54;110552;1240;69457;-61
2023/12/12 03:36:58;;;;;;;;;;;;;;;0.00;100.00;96876.73;110437;1241;68530;-62
2023/12/12 03:39:29;;;;;;;;;;;;;;;0.02;100.00;96878.24;110611;1240;59756;-62
2023/12/12 03:42:02;;;;;;;;;;;;;;;0.03;100.00;96875.11;110497;1240;59700;-62
2023/12/12 03:44:32;;;;;;;;;;;;;;;0.05;100.00;96874.36;110582;1242;71969;-60
2023/12/12 03:47:03;;;;;;;;;;;;;;;0.06;100.00;96872.77;110519;1238;68582;-60
2023/12/12 03:49:34;;;;;;;;;;;;;;;0.06;100.00;96863.86;110428;1238;69282;-60
2023/12/12 03:52:07;;;;;;;;;;;;;;;0.07;100.00;96864.84;110431;1242;59680;-61
2023/12/12 03:54:38;;;;;;;;;;;;;;;0.08;100.00;96854.85;110420;1240;59756;-61
2023/12/12 03:57:11;;;;;;;;;;;;;;;0.09;100.00;96849.85;110438;1238;71588;-61
2023/12/12 03:59:41;;;;;;;;;;;;;;;0.09;100.00;96850.55;110479;1241;68754;-62
2023/12/12 04:02:12;;;;;;;;;;;;;;;0.09;100.00;96854.98;110500;1238;69300;-60
2023/12/12 04:04:42;;;;;;;;;;;;;;;0.10;100.00;96849.27;110459;1238;59699;-62
2023/12/12 04:07:13;;;;;;;;;;;;;;;0.10;100.00;96845.36;110464;1241;59694;-62
2023/12/12 04:09:43;;;;;;;;;;;;;;;0.09;100.00;96853.94;110484;1238;70462;-62
2023/12/12 04:12:15;;;;;;;;;;;;;;;0.07;100.00;96859.52;110433;1242;68233;-60
2023/12/12 04:14:48;;;;;;;;;;;;;;;0.09;100.00;96859.09;110633;1241;69174;-61
2023/12/12 04:17:19;;;;;;;;;;;;;;;0.10;100.00;96858.89;110601;1242;59996;-60
2023/12/12 04:19:50;;;;;;;;;;;;;;;0.12;100.00;96862.59;110462;1241;59697;-62
2023/12/12 04:22:22;;;;;;;;;;;;;;;0.14;100.00;96868.48;110626;1242;71290;-60
2023/12/12 04:24:52;;;;;;;;;;;;;;;0.17;100.00;96870.27;110444;1241;69257;-60
2023/12/12 04:27:22;;;;;;;;;;;;;;;0.20;100.00;96869.30;110415;1240;68539;-62
2023/12/12 04:29:52;;;;;;;;;;;;;;;0.22;100.00;96859.78;110426;1239;59727;-60
2023/12/12 04:32:22;;;;;;;;;;;;;;;0.23;100.00;96860.08;110394;1240;59669;-60
2023/12/12 04:34:52;;;;;;;;;;;;;;;0.22;100.00;96871.23;110446;1240;71484;-60
2023/12/12 04:37:22;;;;;;;;;;;;;;;0.24;100.00;96882.66;110604;1242;69383;-60
2023/12/12 04:39:54;;;;;;;;;;;;;;;0.25;100.00;96885.36;110480;1242;69159;-59
2023/12/12 04:42:25;;;;;;;;;;;;;;;0.26;100.00;96887.19;110378;1245;59728;-59
2023/12/12 04:44:55;;;;;;;;;;;;;;;0.29;100.00;96884.89;110470;1240;59634;-60
2023/12/12 04:47:26;;;;;;;;;;;;;;;0.31;100.00;96883.25;110528;1242;70428;-62
2023/12/12 04:49:58;;;;;;;;;;;;;;;0.32;100.00;96869.99;110508;1241;69237;-60
2023/12/12 04:52:29;;;;;;;;;;;;;;;0.32;100.00;96860.55;110338;1240;68488;-60
2023/12/12 04:55:02;;;;;;;;;;;;;;;0.35;100.00;96864.20;110476;1238;59625;-61
2023/12/12 04:57:31;;;;;;;;;;;;;;;0.36;100.00;96864.33;110425;1238;59705;-60
2023/12/12 05:00:03;;;;;;;;;;;;;;;0.38;100.00;96867.16;110410;1241;71240;-61
2023/12/12 05:02:32;;;;;;;;;;;;;;;0.36;100.00;96861.77;110454;1242;69278;-60
2023/12/12 05:05:03;;;;;;;;;;;;;;;0.35;100.00;96859.08;110455;1248;69883;-61
2023/12/12 05:07:33;;;;;;;;;;;;;;;0.32;100.00;96861.27;110426;1242;60056;-62
2023/12/12 05:10:04;;;;;;;;;;;;;;;0.31;100.00;96861.48;110377;1238;59748;-60
2023/12/12 05:12:34;;;;;;;;;;;;;;;0.32;100.00;96867.42;110458;1238;70461;-60
2023/12/12 05:15:04;;;;;;;;;;;;;;;0.32;100.00;96868.26;110485;1243;69574;-60
2023/12/12 05:17:34;;;;;;;;;;;;;;;0.33;100.00;96865.84;110407;1241;69285;-60
2023/12/12 05:20:05;;;;;;;;;;;;;;;0.34;100.00;96868.18;110289;1242;59727;-60
2023/12/12 05:22:37;;;;;;;;;;;;;;;0.34;100.00;96868.54;110440;1240;59756;-60
2023/12/12 05:25:07;;;;;;;;;;;;;;;0.36;100.00;96869.47;110421;1242;71886;-61
2023/12/12 05:27:37;;;;;;;;;;;;;;;0.39;100.00;96866.63;110516;1242;68119;-61
2023/12/12 05:30:08;;;;;;;;;;;;;;;0.40;100.00;96872.07;110397;1243;68320;-61
2023/12/12 05:32:39;;;;;;;;;;;;;;;0.39;100.00;96872.27;110446;1240;59683;-61
2023/12/12 05:35:09;;;;;;;;;;;;;;;0.41;100.00;96859.32;110520;1238;59688;-61
2023/12/12 05:37:39;;;;;;;;;;;;;;;0.41;100.00;96865.17;110558;1242;71470;-61
2023/12/12 05:40:08;;;;;;;;;;;;;;;0.39;100.00;96879.66;110604;1243;69262;-61
2023/12/12 05:42:37;;;;;;;;;;;;;;;0.36;100.00;96882.67;110593;1238;69142;-60
2023/12/12 05:45:10;;;;;;;;;;;;;;;0.37;100.00;96878.88;110484;1240;59686;-61
2023/12/12 05:47:40;;;;;;;;;;;;;;;0.38;100.00;96876.80;110626;1243;59742;-61
2023/12/12 05:50:11;;;;;;;;;;;;;;;0.40;100.00;96872.60;110565;1241;70231;-61
2023/12/12 05:52:41;;;;;;;;;;;;;;;0.42;100.00;96877.31;110276;1242;69239;-62
2023/12/12 05:55:10;;;;;;;;;;;;;;;0.44;100.00;96874.65;110602;1238;67519;-61
2023/12/12 05:57:39;;;;;;;;;;;;;;;0.44;100.00;96875.33;110490;1242;59675;-62
2023/12/12 06:00:10;;;;;;;;;;;;;;;0.45;100.00;96877.52;110434;1241;59643;-61
2023/12/12 06:02:40;;;;;;;;;;;;;;;0.46;100.00;96881.77;110366;1240;70724;-61
2023/12/12 06:05:10;;;;;;;;;;;;;;;0.49;100.00;96877.69;110231;1242;68282;-61
2023/12/12 06:07:42;;;;;;;;;;;;;;;0.52;100.00;96870.38;110565;1241;68797;-61
2023/12/12 06:10:15;;;;;;;;;;;;;;;0.55;100.00;96874.55;110549;1238;59731;-61
2023/12/12 06:12:45;;;;;;;;;;;;;;;0.55;100.00;96881.41;110462;1241;59743;-61
2023/12/12 06:15:15;;;;;;;;;;;;;;;0.55;100.00;96881.23;110572;1242;72013;-61
2023/12/12 06:17:45;;;;;;;;;;;;;;;0.58;100.00;96884.89;110564;1241;69665;-61
2023/12/12 06:20:14;;;;;;;;;;;;;;;0.60;100.00;96894.41;110508;1240;69826;-61
2023/12/12 06:22:45;;;;;;;;;;;;;;;0.60;100.00;96894.56;110445;1242;59730;-61
2023/12/12 06:25:14;;;;;;;;;;;;;;;0.65;100.00;96895.75;110565;1241;59731;-60
2023/12/12 06:27:43;;;;;;;;;;;;;;;0.69;100.00;96901.75;110506;1239;70814;-61
2023/12/12 06:30:13;;;;;;;;;;;;;;;0.73;100.00;96900.05;110543;1242;68392;-62
2023/12/12 06:32:42;;;;;;;;;;;;;;;0.76;100.00;96899.54;110550;1242;69274;-62
2023/12/12 06:35:12;;;;;;;;;;;;;;;0.81;100.00;96897.13;110404;1240;59737;-64
2023/12/12 06:37:42;;;;;;;;;;;;;;;0.85;100.00;96893.85;110505;1241;59690;-62
2023/12/12 06:40:12;;;;;;;;;;;;;;;0.90;100.00;96897.41;110518;1242;70977;-62
2023/12/12 06:42:44;;;;;;;;;;;;;;;0.96;100.00;96898.73;110607;1241;69339;-61
2023/12/12 06:45:14;;;;;;;;;;;;;;;1.03;100.00;96885.73;110570;1242;69266;-61
2023/12/12 06:47:43;;;;;;;;;;;;;;;1.10;100.00;96883.86;110488;1242;59645;-62
2023/12/12 06:50:14;;;;;;;;;;;;;;;1.21;100.00;96888.71;110420;1240;59669;-61
2023/12/12 06:52:45;;;;;;;;;;;;;;;1.31;100.00;96891.36;110498;1240;72049;-61
2023/12/12 06:55:15;;;;;;;;;;;;;;;1.36;100.00;96894.95;110595;1241;69901;-61
2023/12/12 06:57:45;;;;;;;;;;;;;;;1.38;100.00;96900.69;110453;1238;69607;-62
2023/12/12 07:00:15;;;;;;;;;;;;;;;1.42;100.00;96902.03;110467;1241;59807;-61
2023/12/12 07:02:45;;;;;;;;;;;;;;;1.45;100.00;96907.56;110412;1242;59624;-62
2023/12/12 07:05:15;;;;;;;;;;;;;;;1.50;100.00;96919.55;110410;1242;71385;-61
2023/12/12 07:07:44;;;;;;;;;;;;;;;1.53;100.00;96915.64;110647;1240;69881;-61
2023/12/12 07:10:16;;;;;;;;;;;;;;;1.58;100.00;96905.61;110615;1237;69949;-61
2023/12/12 07:12:44;;;;;;;;;;;;;;;1.60;100.00;96900.88;110622;1241;59737;-61
2023/12/12 07:15:30;;;;;;;;;;;;;;;1.66;100.00;96901.31;110463;1240;59675;-61
2023/12/12 07:18:01;;;;;;;;;;;;;;;1.70;100.00;96904.89;110639;1241;70834;-61
2023/12/12 07:20:30;;;;;;;;;;;;;;;1.75;100.00;96902.25;110450;1242;69949;-62
2023/12/12 07:22:59;;;;;;;;;;;;;;;1.81;100.00;96903.04;110387;1244;69233;-62
2023/12/12 07:25:29;;;;;;;;;;;;;;;1.84;100.00;96908.22;110560;1240;59686;-60
2023/12/12 07:27:58;;;;;;;;;;;;;;;1.85;100.00;96915.22;110615;1239;59730;-61
2023/12/12 07:30:28;;;;;;;;;;;;;;;1.86;100.00;96917.04;110653;1239;71333;-60
2023/12/12 07:32:58;;;;;;;;;;;;;;;1.90;100.00;96912.23;110534;1238;68519;-61
2023/12/12 07:35:28;;;;;;;;;;;;;;;1.93;100.00;96918.10;110444;1241;69775;-60
2023/12/12 07:37:57;;;;;;;;;;;;;;;1.93;100.00;96917.58;110366;1242;59684;-60
2023/12/12 07:40:30;;;;;;;;;;;;;;;1.95;100.00;96920.11;110511;1242;59665;-60
2023/12/12 07:43:00;;;;;;;;;;;;;;;1.95;100.00;96926.27;110638;1239;70436;-61
2023/12/12 07:45:30;;;;;;;;;;;;;;;1.96;100.00;96928.80;110546;1239;68849;-60
2023/12/12 07:47:59;;;;;;;;;;;;;;;1.97;100.00;96932.52;110586;1241;68645;-60
2023/12/12 07:50:28;;;;;;;;;;;;;;;2.01;100.00;96933.36;110528;1244;59709;-60
2023/12/12 07:52:58;;;;;;;;;;;;;;;2.04;100.00;96929.45;110473;1242;59663;-60
2023/12/12 07:55:27;;;;;;;;;;;;;;;2.08;100.00;96921.55;110530;1238;71351;-60
2023/12/12 07:57:57;;;;;;;;;;;;;;;2.12;100.00;96925.30;110623;1239;69801;-59
2023/12/12 08:00:26;;;;;;;;;;;;;;;2.20;100.00;96926.17;110559;1242;69871;-60
2023/12/12 08:02:56;;;;;;;;;;;;;;;2.29;100.00;96927.41;110590;1238;59678;-60
2023/12/12 08:05:26;;;;;;;;;;;;;;;2.38;100.00;96928.73;110463;1238;59689;-61
2023/12/12 08:07:56;;;;;;;;;;;;;;;2.45;100.00;96928.21;110558;1241;71794;-61
2023/12/12 08:10:26;;;;;;;;;;;;;;;2.46;100.00;96927.62;110441;1242;69207;-61
2023/12/12 08:12:56;;;;;;;;;;;;;;;2.48;100.00;96924.30;110515;1240;68627;-61
2023/12/12 08:15:25;;;;;;;;;;;;;;;2.48;100.00;96923.59;110409;1242;59747;-61
2023/12/12 08:17:55;;;;;;;;;;;;;;;2.53;100.00;96930.23;110490;1242;59622;-62
2023/12/12 08:20:26;;;;;;;;;;;;;;;2.58;100.00;96939.30;110577;1243;72157;-61
2023/12/12 08:22:57;;;;;;;;;;;;;;;2.62;100.00;96931.20;110368;1242;69122;-61
2023/12/12 08:25:29;;;;;;;;;;;;;;;2.63;100.00;96931.98;110450;1238;69816;-61
2023/12/12 08:28:00;;;;;;;;;;;;;;;2.62;100.00;96924.29;110480;1241;59693;-61
2023/12/12 08:30:30;;;;;;;;;;;;;;;2.60;100.00;96919.92;110587;1242;59797;-61
2023/12/12 08:32:59;;;;;;;;;;;;;;;2.64;100.00;96916.83;110531;1242;70664;-61
2023/12/12 08:35:29;;;;;;;;;;;;;;;2.69;100.00;96910.55;110433;1241;68417;-61
2023/12/12 08:37:58;;;;;;;;;;;;;;;2.80;100.00;96911.39;110680;1239;68549;-61
2023/12/12 08:40:28;;;;;;;;;;;;;;;3.09;100.00;96908.70;110551;1242;60073;-61
2023/12/12 08:42:57;;;;;;;;;;;;;;;3.55;100.00;96900.11;110534;1240;59795;-61
2023/12/12 08:45:27;;;;;;;;;;;;;;;4.00;100.00;96905.98;110657;1247;71981;-61
2023/12/12 08:47:57;;;;;;;;;;;;;;;4.14;100.00;96905.58;110308;1242;69216;-61
2023/12/12 08:50:29;;;;;;;;;;;;;;;4.31;100.00;96915.68;110525;1242;69816;-63
2023/12/12 08:53:00;;;;;;;;;;;;;;;4.47;100.00;96921.34;110527;1242;59732;-62
2023/12/12 08:55:30;;;;;;;;;;;;;;;4.60;100.00;96923.71;110464;1242;59733;-62
2023/12/12 08:57:59;;;;;;;;;;;;;;;4.71;100.00;96921.88;110436;1238;72422;-61
2023/12/12 09:00:29;;;;;;;;;;;;;;;4.80;100.00;96919.08;110496;1241;69551;-63
2023/12/12 09:02:59;;;;;;;;;;;;;;;4.90;100.00;96920.28;110584;1240;69995;-62
2023/12/12 09:05:29;;;;;;;;;;;;;;;4.85;100.00;96918.28;110448;1242;59727;-63
2023/12/12 09:07:58;;;;;;;;;;;;;;;4.87;100.00;96918.50;110424;1242;59737;-63
2023/12/12 09:10:27;;;;;;;;;;;;;;;4.87;100.00;96917.53;110569;1242;71406;-63
2023/12/12 09:12:57;;;;;;;;;;;;;;;4.88;100.00;96915.73;110439;1241;69178;-62
2023/12/12 09:15:26;;;;;;;;;;;;;;;4.84;100.00;96920.06;110457;1238;69867;-63
2023/12/12 09:17:55;;;;;;;;;;;;;;;4.74;100.00;96923.08;110447;1241;59708;-62
2023/12/12 09:20:46;;;;;;;;;;;;;;;4.60;100.00;96927.52;110516;1241;59626;-63
2023/12/12 09:23:16;;;;;;;;;;;;;;;4.46;100.00;96930.00;110406;1241;71995;-62
2023/12/12 09:25:46;;;;;;;;;;;;;;;4.46;100.00;96919.66;110583;1242;69235;-62
2023/12/12 09:28:16;;;;;;;;;;;;;;;4.36;100.00;96931.91;110525;1243;69295;-61
2023/12/12 09:30:46;;;;;;;;;;;;;;;4.29;100.00;96930.08;110418;1238;59685;-61
2023/12/12 09:33:16;;;;;;;;;;;;;;;4.21;100.00;96937.26;110473;1241;59663;-60
2023/12/12 09:35:46;;;;;;;;;;;;;;;4.17;100.00;96926.47;110500;1243;70610;-61
2023/12/12 09:38:16;;;;;;;;;;;;;;;4.14;100.00;96936.27;110429;1240;68737;-61
2023/12/12 09:40:45;;;;;;;;;;;;;;;4.13;100.00;96936.15;110430;1242;68879;-61
2023/12/12 09:43:15;;;;;;;;;;;;;;;4.09;100.00;96928.77;110463;1242;59683;-61
2023/12/12 09:45:46;;;;;;;;;;;;;;;4.11;100.00;96933.14;110551;1239;59631;-62
2023/12/12 09:48:15;;;;;;;;;;;;;;;4.14;100.00;96931.62;110387;1241;70790;-62
2023/12/12 09:50:47;;;;;;;;;;;;;;;4.12;100.00;96917.73;110380;1242;68516;-62
2023/12/12 09:53:18;;;;;;;;;;;;;;;4.13;100.00;96910.64;110492;1248;69721;-62
2023/12/12 09:55:47;;;;;;;;;;;;;;;4.23;100.00;96918.87;110431;1247;59743;-62
2023/12/12 09:58:16;;;;;;;;;;;;;;;4.44;100.00;96918.58;110522;1243;59742;-63
2023/12/12 10:00:45;;;;;;;;;;;;;;;4.54;100.00;96918.66;110403;1239;70635;-60
2023/12/12 10:03:15;;;;;;;;;;;;;;;4.61;100.00;96923.09;110520;1242;69192;-62
2023/12/12 10:05:51;;;;;;;;;;;;;;;4.64;100.00;96919.85;110359;1241;69707;-62
2023/12/12 10:08:21;;;;;;;;;;;;;;;4.59;100.00;96915.27;110466;1240;59728;-62
2023/12/12 10:10:50;;;;;;;;;;;;;;;4.55;100.00;96923.41;110472;1238;59744;-62
2023/12/12 10:13:19;;;;;;;;;;;;;;;4.55;100.00;96924.84;110388;1242;71363;-62
2023/12/12 10:15:48;;;;;;;;;;;;;;;4.61;100.00;96922.59;110365;1242;69042;-62
2023/12/12 10:18:18;;;;;;;;;;;;;;;4.72;100.00;96926.64;110373;1242;69088;-60
2023/12/12 10:20:48;;;;;;;;;;;;;;;4.80;100.00;96926.89;110325;1242;59683;-61
2023/12/12 10:23:16;;;;;;;;;;;;;;;4.93;100.00;96927.69;110471;1241;59744;-61
2023/12/12 10:25:49;;;;;;;;;;;;;;;5.03;100.00;96925.68;110404;1238;70669;-61
2023/12/12 10:28:19;;;;;;;;;;;;;;;5.17;100.00;96927.86;110501;1245;69417;-61
2023/12/12 10:30:53;;;;;;;;;;;;;;;5.25;100.00;96929.42;110382;1241;69108;-61
2023/12/12 10:33:26;;;;;;;;;;;;;;;5.24;100.00;96929.81;110392;1242;59805;-61
2023/12/12 10:35:57;;;;;;;;;;;;;;;5.17;100.00;96929.72;110420;1240;59680;-61
2023/12/12 10:38:28;;;;;;;;;;;;;;;5.10;100.00;96924.09;110390;1242;71513;-61
2023/12/12 10:41:27;;;;;;;;;;;;;;;5.07;100.00;96914.77;110474;1240;68537;-61
2023/12/12 10:44:01;;;;;;;;;;;;;;;5.14;100.00;96905.71;110337;1243;69940;-63
2023/12/12 10:46:32;;;;;;;;;;;;;;;5.21;100.00;96902.91;110529;1247;60217;-62
2023/12/12 10:49:02;;;;;;;;;;;;;;;5.32;100.00;96908.61;110502;1244;59673;-59
2023/12/12 10:51:33;;;;;;;;;;;;;;;5.44;100.00;96910.65;110359;1240;71220;-61
2023/12/12 10:54:03;;;;;;;;;;;;;;;5.56;100.00;96919.25;110568;1243;69821;-61
2023/12/12 10:56:35;;;;;;;;;;;;;;;5.66;100.00;96919.20;110452;1242;69295;-61
2023/12/12 10:59:06;;;;;;;;;;;;;;;5.73;100.00;96924.85;110346;1242;59719;-61
2023/12/12 11:01:56;;;;;;;;;;;;;;;5.65;100.00;96921.31;110483;1243;59655;-61
2023/12/12 11:04:26;;;;;;;;;;;;;;;5.70;100.00;96922.09;110494;1241;71979;-62
2023/12/12 11:06:56;;;;;;;;;;;;;;;5.68;100.00;96922.88;110415;1240;69888;-61
2023/12/12 11:09:28;;;;;;;;;;;;;;;5.68;100.00;96918.91;110605;1243;69174;-61
2023/12/12 11:11:57;;;;;;;;;;;;;;;5.78;100.00;96911.36;110386;1242;59728;-61
2023/12/12 11:14:27;;;;;;;;;;;;;;;5.92;100.00;96913.66;110484;1238;59665;-61
2023/12/12 11:16:58;;;;;;;;;;;;;;;6.05;100.00;96914.56;110441;1242;72009;-61
2023/12/12 11:19:28;;;;;;;;;;;;;;;6.17;100.00;96921.42;110408;1242;69196;-61
2023/12/12 11:21:57;;;;;;;;;;;;;;;6.25;100.00;96917.82;110362;1242;69884;-61
2023/12/12 11:24:46;;;;;;;;;;;;;;;6.32;100.00;96915.48;110500;1241;59692;-61
2023/12/12 11:27:17;;;;;;;;;;;;;;;6.38;100.00;96909.05;110376;1241;59681;-61
2023/12/12 11:29:47;;;;;;;;;;;;;;;6.45;100.00;96905.64;110346;1240;71804;-61
2023/12/12 11:32:23;;;;;;;;;;;;;;;6.48;100.00;96914.60;110473;1242;68583;-61
2023/12/12 11:34:53;;;;;;;;;;;;;;;6.51;100.00;96912.88;110557;1238;69204;-62
2023/12/12 11:37:37;;;;;;;;;;;;;;;6.45;100.00;96914.10;110455;1242;59732;-62
2023/12/12 11:40:09;;;;;;;;;;;;;;;6.38;100.00;96916.95;110446;1241;59715;-62
2023/12/12 11:42:40;;;;;;;;;;;;;;;6.28;100.00;96924.88;110504;1242;70714;-62
2023/12/12 11:45:09;;;;;;;;;;;;;;;6.17;100.00;96930.10;110412;1242;69195;-62
2023/12/12 11:47:39;;;;;;;;;;;;;;;6.09;100.00;96932.14;110519;1241;69222;-62
2023/12/12 11:50:11;;;;;;;;;;;;;;;5.98;100.00;96927.47;110589;1242;59744;-62
2023/12/12 11:52:45;;;;;;;;;;;;;;;5.81;100.00;96932.98;110521;1242;59680;-62
2023/12/12 11:55:21;;;;;;;;;;;;;;;5.70;100.00;96934.52;110478;1242;71085;-62
2023/12/12 11:57:56;;;;;;;;;;;;;;;5.70;100.00;96915.83;110405;1238;69148;-62
2023/12/12 12:00:26;;;;;;;;;;;;;;;5.90;100.00;96883.14;110364;1242;69654;-62
2023/12/12 12:02:55;;;;;;;;;;;;;;;6.66;100.00;96887.30;110373;1242;59740;-63
2023/12/12 12:05:26;;;;;;;;;;;;;;;7.74;100.00;96901.84;110512;1246;59751;-62
2023/12/12 12:07:56;;;;;;;;;;;;;;;8.25;100.00;96921.71;110418;1247;72097;-62
2023/12/12 12:10:25;;;;;;;;;;;;;;;8.35;100.00;96927.61;110263;1243;69260;-62
2023/12/12 12:12:55;;;;;;;;;;;;;;;8.42;100.00;96921.42;110380;1240;68914;-62
2023/12/12 12:15:25;;;;;;;;;;;;;;;8.32;100.00;96917.21;110391;1241;59737;-63
2023/12/12 12:17:56;;;;;;;;;;;;;;;8.11;100.00;96908.63;110227;1246;59762;-63
2023/12/12 12:20:27;;;;;;;;;;;;;;;7.76;100.00;96912.64;110486;1242;70510;-63
2023/12/12 12:22:57;;;;;;;;;;;;;;;7.56;100.00;96910.05;110598;1248;69225;-61
2023/12/12 12:25:26;;;;;;;;;;;;;;;7.32;100.00;96909.07;110512;1238;68287;-61
2023/12/12 12:27:56;;;;;;;;;;;;;;;7.13;100.00;96915.71;110585;1242;59665;-61
2023/12/12 12:30:26;;;;;;;;;;;;;;;6.93;100.00;96918.98;110456;1242;59656;-63
2023/12/12 12:32:58;;;;;;;;;;;;;;;6.72;100.00;96919.67;110472;1241;70556;-61
2023/12/12 12:35:28;;;;;;;;;;;;;;;6.52;100.00;96920.75;110447;1238;68322;-61
2023/12/12 12:37:57;;;;;;;;;;;;;;;6.33;100.00;96928.02;110514;1242;69261;-61
2023/12/12 12:40:37;;;;;;;;;;;;;;;6.23;100.00;96915.55;110543;1241;59769;-61
2023/12/12 12:43:14;;;;;;;;;;;;;;;6.07;100.00;96914.08;110484;1239;59682;-61
2023/12/12 12:45:45;;;;;;;;;;;;;;;5.88;100.00;96926.16;110511;1240;71576;-61
2023/12/12 12:48:17;;;;;;;;;;;;;;;5.76;100.00;96923.41;110496;1241;69227;-61
2023/12/12 12:50:49;;;;;;;;;;;;;;;5.66;100.00;96916.96;110476;1247;68468;-61
2023/12/12 12:53:18;;;;;;;;;;;;;;;5.55;100.00;96921.70;110331;1240;59797;-61
2023/12/12 12:55:47;;;;;;;;;;;;;;;5.50;100.00;96915.66;110483;1242;59709;-61